createdAt,value
2018-10-15T00:00:57.128Z,90.83
2018-10-15T00:03:25.244Z,89.97
2018-10-15T00:05:53.319Z,89.35
2018-10-15T00:08:21.475Z,88.69
2018-10-15T00:10:49.548Z,89.07
2018-10-15T00:13:17.648Z,89.04
2018-10-15T00:15:45.759Z,89.66
2018-10-15T00:18:13.852Z,89.89
2018-10-15T00:20:41.939Z,89.51
2018-10-15T00:23:10.046Z,89.54
2018-10-15T00:25:38.211Z,89.33
2018-10-15T00:28:06.423Z,89.49
2018-10-15T00:30:34.517Z,90.47
2018-10-15T00:33:02.595Z,91.73
2018-10-15T00:35:30.679Z,92.98
2018-10-15T00:37:58.791Z,92.83
2018-10-15T00:40:26.883Z,91.67
2018-10-15T00:42:54.987Z,92.27
2018-10-15T00:45:23.095Z,93.59
2018-10-15T00:47:51.180Z,94.05
2018-10-15T00:50:19.322Z,94.81
2018-10-15T00:52:47.407Z,95.28
2018-10-15T00:55:15.524Z,95.30
2018-10-15T00:57:43.685Z,95.20
2018-10-15T01:00:13.940Z,94.73
2018-10-15T01:02:42.092Z,94.48
2018-10-15T01:05:11.224Z,94.33
2018-10-15T01:07:40.267Z,93.65
2018-10-15T01:10:09.502Z,93.09
2018-10-15T01:12:37.585Z,92.50
2018-10-15T01:15:06.988Z,92.29
2018-10-15T01:17:35.110Z,92.11
2018-10-15T01:20:03.419Z,90.74
2018-10-15T01:22:31.504Z,89.64
2018-10-15T01:24:59.642Z,88.97
2018-10-15T01:27:27.718Z,89.80
2018-10-15T01:29:55.792Z,91.46
2018-10-15T01:32:23.859Z,91.32
2018-10-15T01:34:51.979Z,90.72
2018-10-15T01:37:20.064Z,90.75
2018-10-15T01:39:48.155Z,90.54
2018-10-15T01:42:16.227Z,90.76
2018-10-15T01:44:44.318Z,91.61
2018-10-15T01:47:12.428Z,91.33
2018-10-15T01:49:40.507Z,90.90
2018-10-15T01:52:08.588Z,91.29
2018-10-15T01:54:36.677Z,91.68
2018-10-15T01:57:04.935Z,91.39
2018-10-15T01:59:33.038Z,91.65
2018-10-15T02:02:07.888Z,91.83
2018-10-15T02:04:36.024Z,91.42
2018-10-15T02:07:04.571Z,90.64
2018-10-15T02:09:32.680Z,93.16
2018-10-15T02:12:00.751Z,94.52
2018-10-15T02:14:29.155Z,94.12
2018-10-15T02:16:57.220Z,94.27
2018-10-15T02:19:25.292Z,94.48
2018-10-15T02:21:53.363Z,94.16
2018-10-15T02:24:21.447Z,92.91
2018-10-15T02:26:49.536Z,93.31
2018-10-15T02:29:17.777Z,91.00
2018-10-15T02:31:45.886Z,90.48
2018-10-15T02:34:13.955Z,92.40
2018-10-15T02:36:42.122Z,93.08
2018-10-15T02:39:12.044Z,92.54
2018-10-15T02:41:40.295Z,91.85
2018-10-15T02:44:08.707Z,92.54
2018-10-15T02:46:37.206Z,92.16
2018-10-15T02:49:05.288Z,92.73
2018-10-15T02:51:33.411Z,91.86
2018-10-15T02:54:01.564Z,90.70
2018-10-15T02:56:29.657Z,90.52
2018-10-15T02:58:57.892Z,89.90
2018-10-15T03:01:25.973Z,90.12
2018-10-15T03:03:54.061Z,89.81
2018-10-15T03:06:22.162Z,91.01
2018-10-15T03:08:50.279Z,91.80
2018-10-15T03:11:18.404Z,92.47
2018-10-15T03:13:46.495Z,91.33
2018-10-15T03:16:14.567Z,92.97
2018-10-15T03:18:42.657Z,93.72
2018-10-15T03:21:10.745Z,93.85
2018-10-15T03:23:38.840Z,93.82
2018-10-15T03:26:06.918Z,94.35
2018-10-15T03:28:35.010Z,94.77
2018-10-15T03:31:03.156Z,95.44
2018-10-15T03:33:31.259Z,95.42
2018-10-15T03:35:59.338Z,95.53
2018-10-15T03:38:27.495Z,94.79
2018-10-15T03:40:55.847Z,94.60
2018-10-15T03:43:23.944Z,93.20
2018-10-15T03:45:52.020Z,93.06
2018-10-15T03:48:20.160Z,94.03
2018-10-15T03:50:48.239Z,94.93
2018-10-15T03:53:16.314Z,95.54
2018-10-15T03:55:44.404Z,95.85
2018-10-15T03:58:12.588Z,95.71
2018-10-15T04:00:40.703Z,96.02
2018-10-15T04:03:08.835Z,96.47
2018-10-15T04:05:36.923Z,95.40
2018-10-15T04:08:05.011Z,95.88
2018-10-15T04:10:33.111Z,95.51
2018-10-15T04:13:01.220Z,95.91
2018-10-15T04:15:29.299Z,94.77
2018-10-15T04:17:57.413Z,94.09
2018-10-15T04:20:25.491Z,93.13
2018-10-15T04:22:53.584Z,93.38
2018-10-15T04:25:22.811Z,93.86
2018-10-15T04:27:50.931Z,93.23
2018-10-15T04:30:19.259Z,92.90
2018-10-15T04:32:48.054Z,92.05
2018-10-15T04:35:16.301Z,92.51
2018-10-15T04:37:44.393Z,92.20
2018-10-15T04:40:13.297Z,92.96
2018-10-15T04:42:42.491Z,94.12
2018-10-15T04:45:11.803Z,94.81
2018-10-15T04:47:40.267Z,95.12
2018-10-15T04:50:08.973Z,95.16
2018-10-15T04:52:37.245Z,95.87
2018-10-15T04:55:06.386Z,95.44
2018-10-15T04:57:34.711Z,95.02
2018-10-15T05:00:02.799Z,94.31
2018-10-15T05:02:30.907Z,93.98
2018-10-15T05:04:59.198Z,93.79
2018-10-15T05:07:27.363Z,92.52
2018-10-15T05:09:55.471Z,92.65
2018-10-15T05:12:23.720Z,92.26
2018-10-15T05:14:51.680Z,92.29
2018-10-15T05:17:19.801Z,91.64
2018-10-15T05:19:47.920Z,91.33
2018-10-15T05:22:16.023Z,90.67
2018-10-15T05:24:44.175Z,90.97
2018-10-15T05:27:12.284Z,92.60
2018-10-15T05:29:40.395Z,93.15
2018-10-15T05:32:08.582Z,92.83
2018-10-15T05:34:36.686Z,91.56
2018-10-15T05:37:04.781Z,90.93
2018-10-15T05:39:32.937Z,91.68
2018-10-15T05:42:01.046Z,91.80
2018-10-15T05:44:29.365Z,92.53
2018-10-15T06:00:59.887Z,95.46
2018-10-15T06:03:27.959Z,94.99
2018-10-15T06:05:56.058Z,94.71
2018-10-15T06:08:24.183Z,93.20
2018-10-15T06:10:52.264Z,92.28
2018-10-15T06:13:20.367Z,92.32
2018-10-15T06:15:48.415Z,92.03
2018-10-15T06:18:16.570Z,92.48
2018-10-15T06:20:44.576Z,91.73
2018-10-15T06:23:12.688Z,92.49
2018-10-15T06:25:40.784Z,91.14
2018-10-15T06:28:08.893Z,89.71
2018-10-15T06:30:36.968Z,89.39
2018-10-15T06:33:05.325Z,89.09
2018-10-15T06:35:33.399Z,87.19
2018-10-15T06:38:01.490Z,87.95
2018-10-15T06:40:29.556Z,87.91
2018-10-15T06:42:57.645Z,89.71
2018-10-15T06:45:25.870Z,90.05
2018-10-15T06:47:53.787Z,88.90
2018-10-15T06:50:21.871Z,87.45
2018-10-15T06:52:49.951Z,87.69
2018-10-15T06:55:18.178Z,89.43
2018-10-15T06:57:46.232Z,89.83
2018-10-15T07:00:14.364Z,90.25
2018-10-15T07:02:42.391Z,89.58
2018-10-15T07:05:10.495Z,89.55
2018-10-15T07:07:38.703Z,89.40
2018-10-15T07:10:07.512Z,89.47
2018-10-15T07:12:35.572Z,88.89
2018-10-15T07:15:03.656Z,87.90
2018-10-15T07:17:31.780Z,87.78
2018-10-15T07:19:59.902Z,85.86
2018-10-15T07:22:27.943Z,84.77
2018-10-15T07:25:07.477Z,85.10
2018-10-15T07:27:35.542Z,84.22
2018-10-15T07:30:03.688Z,83.95
2018-10-15T07:32:31.788Z,84.08
2018-10-15T07:34:59.868Z,83.48
2018-10-15T07:37:28.211Z,83.43
2018-10-15T07:39:56.291Z,82.62
2018-10-15T07:42:24.435Z,81.69
2018-10-15T07:44:52.638Z,81.11
2018-10-15T07:47:20.727Z,81.18
2018-10-15T07:49:48.788Z,81.95
2018-10-15T07:52:16.996Z,80.52
2018-10-15T07:54:45.032Z,80.84
2018-10-15T07:57:13.104Z,81.13
2018-10-15T07:59:41.309Z,80.44
2018-10-15T08:02:09.444Z,80.06
2018-10-15T08:04:37.718Z,79.89
2018-10-15T08:07:05.831Z,79.23
2018-10-15T08:09:33.919Z,79.42
2018-10-15T08:12:02.097Z,78.76
2018-10-15T08:14:30.206Z,78.11
2018-10-15T08:16:58.299Z,77.41
2018-10-15T08:19:26.380Z,77.11
2018-10-15T08:21:54.446Z,77.19
2018-10-15T08:24:22.516Z,76.78
2018-10-15T08:26:51.577Z,76.15
2018-10-15T08:29:19.680Z,75.79
2018-10-15T08:31:47.776Z,76.38
2018-10-15T08:34:15.907Z,75.53
2018-10-15T08:36:43.988Z,75.97
2018-10-15T08:39:12.574Z,74.93
2018-10-15T08:41:40.690Z,74.47
2018-10-15T08:44:08.742Z,74.36
2018-10-15T08:46:36.802Z,74.62
2018-10-15T08:49:05.374Z,74.72
2018-10-15T08:51:33.591Z,74.83
2018-10-15T08:54:01.698Z,74.26
2018-10-15T08:56:29.777Z,73.49
2018-10-15T08:58:57.851Z,73.54
2018-10-15T09:01:25.963Z,72.91
2018-10-15T09:03:54.711Z,73.06
2018-10-15T09:06:22.942Z,71.64
2018-10-15T09:08:53.008Z,71.64
2018-10-15T09:11:21.579Z,71.21
2018-10-15T09:13:49.662Z,72.07
2018-10-15T09:16:17.744Z,70.77
2018-10-15T09:18:45.899Z,70.65
2018-10-15T09:21:13.972Z,69.96
2018-10-15T09:23:42.030Z,69.00
2018-10-15T09:26:10.111Z,67.69
2018-10-15T09:28:38.248Z,67.92
2018-10-15T09:31:06.482Z,65.84
2018-10-15T09:33:34.897Z,66.07
2018-10-15T09:36:02.831Z,65.23
2018-10-15T09:38:30.971Z,65.19
2018-10-15T09:40:59.119Z,65.27
2018-10-15T09:43:27.088Z,64.42
2018-10-15T09:45:55.217Z,65.13
2018-10-15T09:48:23.244Z,64.27
2018-10-15T09:50:51.344Z,64.37
2018-10-15T09:53:19.453Z,64.16
2018-10-15T09:55:47.460Z,64.13
2018-10-15T09:58:15.543Z,63.60
2018-10-15T10:00:48.968Z,63.31
2018-10-15T10:03:17.061Z,63.03
2018-10-15T10:05:45.176Z,62.58
2018-10-15T10:08:13.249Z,62.57
2018-10-15T10:10:41.412Z,62.55
2018-10-15T10:13:09.513Z,61.63
2018-10-15T10:15:37.744Z,62.88
2018-10-15T10:18:06.085Z,61.86
2018-10-15T10:20:34.044Z,61.48
2018-10-15T10:23:02.257Z,61.41
2018-10-15T10:25:30.283Z,61.29
2018-10-15T10:27:58.378Z,60.24
2018-10-15T10:30:26.462Z,61.01
2018-10-15T10:32:54.590Z,60.71
2018-10-15T10:36:02.211Z,60.55
2018-10-15T10:38:51.936Z,60.77
2018-10-15T10:41:19.955Z,59.69
2018-10-15T10:43:48.346Z,59.86
2018-10-15T10:46:16.433Z,59.73
2018-10-15T10:48:44.526Z,60.08
2018-10-15T10:51:12.683Z,59.48
2018-10-15T10:53:41.010Z,58.92
2018-10-15T10:56:09.140Z,58.78
2018-10-15T10:58:37.226Z,58.45
2018-10-15T11:01:05.568Z,58.22
2018-10-15T11:03:33.655Z,58.21
2018-10-15T11:06:01.727Z,57.69
2018-10-15T11:08:29.929Z,57.52
2018-10-15T11:10:57.954Z,56.95
2018-10-15T11:13:26.051Z,57.66
2018-10-15T11:15:54.118Z,56.68
2018-10-15T11:18:22.249Z,57.47
2018-10-15T11:20:50.342Z,56.05
2018-10-15T11:23:18.406Z,56.37
2018-10-15T11:25:46.456Z,55.25
2018-10-15T11:28:14.567Z,55.45
2018-10-15T11:30:42.623Z,55.55
2018-10-15T11:33:10.737Z,55.60
2018-10-15T11:35:38.818Z,54.58
2018-10-15T11:38:06.908Z,53.68
2018-10-15T11:40:34.987Z,52.68
2018-10-15T11:43:03.100Z,54.08
2018-10-15T11:45:31.175Z,52.47
2018-10-15T11:47:59.234Z,53.21
2018-10-15T11:50:27.351Z,50.77
2018-10-15T11:52:55.419Z,52.01
2018-10-15T11:55:23.512Z,51.87
2018-10-15T11:57:51.588Z,52.13
2018-10-15T12:00:19.681Z,51.43
2018-10-15T12:02:48.564Z,51.98
2018-10-15T12:05:16.683Z,50.85
2018-10-15T12:07:44.763Z,50.86
2018-10-15T12:10:13.591Z,51.45
2018-10-15T12:12:41.654Z,51.98
2018-10-15T12:15:11.234Z,51.60
2018-10-15T12:17:39.841Z,51.06
2018-10-15T12:20:09.139Z,50.48
2018-10-15T12:22:37.543Z,51.13
2018-10-15T12:25:07.158Z,51.59
2018-10-15T12:27:35.393Z,51.50
2018-10-15T12:30:03.567Z,51.48
2018-10-15T12:32:31.680Z,51.04
2018-10-15T12:34:59.771Z,50.15
2018-10-15T12:37:27.843Z,50.30
2018-10-15T12:39:55.945Z,51.34
2018-10-15T12:42:24.041Z,50.28
2018-10-15T12:44:52.155Z,49.98
2018-10-15T12:47:20.252Z,51.21
2018-10-15T12:49:48.349Z,50.63
2018-10-15T12:52:16.488Z,49.95
2018-10-15T12:54:44.584Z,49.42
2018-10-15T12:57:12.900Z,49.01
2018-10-15T12:59:40.860Z,49.29
2018-10-15T13:02:08.944Z,47.85
2018-10-15T13:04:37.023Z,48.11
2018-10-15T13:07:05.280Z,47.70
2018-10-15T13:09:33.359Z,47.96
2018-10-15T13:12:01.441Z,47.07
2018-10-15T13:14:29.519Z,47.54
2018-10-15T13:16:57.639Z,47.50
2018-10-15T13:19:25.755Z,47.26
2018-10-15T13:21:53.872Z,46.82
2018-10-15T13:24:21.948Z,47.07
2018-10-15T13:26:50.020Z,46.87
2018-10-15T13:29:18.092Z,46.58
2018-10-15T13:31:46.348Z,46.63
2018-10-15T13:34:14.498Z,46.19
2018-10-15T13:36:42.615Z,46.63
2018-10-15T13:39:10.664Z,46.52
2018-10-15T13:41:38.736Z,47.00
2018-10-15T13:44:06.835Z,46.68
2018-10-15T13:46:34.906Z,46.23
2018-10-15T13:49:02.996Z,46.17
2018-10-15T13:51:31.196Z,46.46
2018-10-15T13:53:59.291Z,46.15
2018-10-15T13:56:27.371Z,45.92
2018-10-15T13:58:55.443Z,45.98
2018-10-15T14:01:23.835Z,45.79
2018-10-15T14:03:52.314Z,45.25
2018-10-15T14:06:20.376Z,44.88
2018-10-15T14:08:48.446Z,44.14
2018-10-15T14:11:16.524Z,44.38
2018-10-15T14:13:44.596Z,44.40
2018-10-15T14:16:12.707Z,44.75
2018-10-15T14:18:40.805Z,44.05
2018-10-15T14:21:08.867Z,43.85
2018-10-15T14:23:37.068Z,43.99
2018-10-15T14:26:05.334Z,43.73
2018-10-15T14:28:33.396Z,43.62
2018-10-15T14:31:01.596Z,43.35
2018-10-15T14:33:29.647Z,43.00
2018-10-15T14:35:57.715Z,43.37
2018-10-15T14:38:25.855Z,43.63
2018-10-15T14:40:53.895Z,43.48
2018-10-15T14:43:21.993Z,43.25
2018-10-15T14:45:50.057Z,43.79
2018-10-15T14:48:18.112Z,43.05
2018-10-15T14:50:46.185Z,42.97
2018-10-15T14:53:14.336Z,43.00
2018-10-15T14:55:42.428Z,42.99
2018-10-15T14:58:10.548Z,43.32
2018-10-15T15:00:38.570Z,43.04
2018-10-15T15:03:06.656Z,43.17
2018-10-15T15:05:34.735Z,43.47
2018-10-15T15:08:02.839Z,43.17
2018-10-15T15:10:42.201Z,43.42
2018-10-15T15:13:21.716Z,43.73
2018-10-15T15:15:49.785Z,44.18
2018-10-15T15:18:17.867Z,43.61
2018-10-15T15:20:46.019Z,43.53
2018-10-15T15:23:14.127Z,44.15
2018-10-15T15:25:42.302Z,44.96
2018-10-15T15:28:10.433Z,44.54
2018-10-15T15:30:38.473Z,44.96
2018-10-15T15:33:06.574Z,44.48
2018-10-15T15:35:34.644Z,44.91
2018-10-15T15:38:02.709Z,44.14
2018-10-15T15:40:30.811Z,44.20
2018-10-15T15:42:58.875Z,44.51
2018-10-15T15:45:27.017Z,44.76
2018-10-15T15:47:55.085Z,44.67
2018-10-15T15:50:23.147Z,44.73
2018-10-15T15:52:51.268Z,45.58
2018-10-15T15:55:19.333Z,47.31
2018-10-15T15:57:47.427Z,48.16
2018-10-15T16:00:15.511Z,49.94
2018-10-15T16:02:43.601Z,50.85
2018-10-15T16:05:12.043Z,51.43
2018-10-15T16:07:40.506Z,52.00
2018-10-15T16:10:09.382Z,52.56
2018-10-15T16:12:37.473Z,53.18
2018-10-15T16:15:06.958Z,53.56
2018-10-15T16:17:35.048Z,53.68
2018-10-15T16:20:03.120Z,54.79
2018-10-15T16:22:31.203Z,55.60
2018-10-15T16:24:59.276Z,55.92
2018-10-15T16:27:27.557Z,55.63
2018-10-15T16:29:55.640Z,56.46
2018-10-15T16:32:23.704Z,57.18
2018-10-15T16:34:51.787Z,57.22
2018-10-15T16:37:19.852Z,58.38
2018-10-15T16:39:47.933Z,58.42
2018-10-15T16:42:16.040Z,59.36
2018-10-15T16:44:44.099Z,60.06
2018-10-15T16:47:12.191Z,60.50
2018-10-15T16:49:40.275Z,61.30
2018-10-15T16:52:08.516Z,61.94
2018-10-15T16:54:36.496Z,63.72
2018-10-15T16:57:04.576Z,62.88
2018-10-15T16:59:32.685Z,63.42
2018-10-15T17:02:00.755Z,63.24
2018-10-15T17:04:28.835Z,63.40
2018-10-15T17:06:56.926Z,64.45
2018-10-15T17:09:24.989Z,65.12
2018-10-15T17:11:53.095Z,65.98
2018-10-15T17:14:21.165Z,65.88
2018-10-15T17:16:49.294Z,66.45
2018-10-15T17:19:17.447Z,66.55
2018-10-15T17:21:45.520Z,67.10
2018-10-15T17:24:13.589Z,67.98
2018-10-15T17:26:41.673Z,68.27
2018-10-15T17:29:10.139Z,67.51
2018-10-15T17:31:38.418Z,67.86
2018-10-15T17:34:06.500Z,67.84
2018-10-15T17:36:34.580Z,67.94
2018-10-15T17:39:02.656Z,68.71
2018-10-15T17:41:30.757Z,68.67
2018-10-15T17:43:59.039Z,69.02
2018-10-15T17:46:27.168Z,68.70
2018-10-15T17:48:55.330Z,69.21
2018-10-15T17:51:23.416Z,69.16
2018-10-15T17:53:51.503Z,69.98
2018-10-15T17:56:19.569Z,69.99
2018-10-15T17:58:47.665Z,69.33
2018-10-15T18:01:15.728Z,70.58
2018-10-15T18:03:43.805Z,70.78
2018-10-15T18:06:11.859Z,70.65
2018-10-15T18:08:39.927Z,70.87
2018-10-15T18:11:07.986Z,70.93
2018-10-15T18:13:36.067Z,72.03
2018-10-15T18:16:04.135Z,72.08
2018-10-15T18:18:33.372Z,72.48
2018-10-15T18:21:01.738Z,72.15
2018-10-15T18:23:30.052Z,72.43
2018-10-15T18:25:58.741Z,73.17
2018-10-15T18:28:28.804Z,73.71
2018-10-15T18:31:03.407Z,73.39
2018-10-15T18:33:31.773Z,74.12
2018-10-15T18:36:02.175Z,74.17
2018-10-15T18:38:31.805Z,74.26
2018-10-15T18:41:01.278Z,73.76
2018-10-15T18:43:31.292Z,75.23
2018-10-15T18:46:00.731Z,74.66
2018-10-15T18:48:31.439Z,74.03
2018-10-15T18:51:04.395Z,73.97
2018-10-15T18:53:33.332Z,73.92
2018-10-15T18:56:01.951Z,74.11
2018-10-15T18:58:30.541Z,74.18
2018-10-15T19:01:00.567Z,75.10
2018-10-15T19:03:29.901Z,74.79
2018-10-15T19:06:02.580Z,76.12
2018-10-15T19:08:34.605Z,76.34
2018-10-15T19:11:04.005Z,76.98
2018-10-15T19:13:34.753Z,76.95
2018-10-15T19:16:30.104Z,77.01
2018-10-15T19:19:04.613Z,77.34
2018-10-15T19:21:37.444Z,78.00
2018-10-15T19:24:06.707Z,77.61
2018-10-15T19:29:29.824Z,78.65
2018-10-15T19:31:58.875Z,79.06
2018-10-15T19:37:07.911Z,79.55
2018-10-15T19:39:39.171Z,78.51
2018-10-15T19:42:12.206Z,78.82
2018-10-15T19:44:42.218Z,78.58
2018-10-15T19:47:11.968Z,78.37
2018-10-15T19:49:41.981Z,77.98
2018-10-15T19:52:11.799Z,77.92
2018-10-15T19:54:40.875Z,77.51
2018-10-15T19:57:09.203Z,77.00
2018-10-15T19:59:37.510Z,77.25
2018-10-15T20:04:53.901Z,78.51
2018-10-15T20:07:24.773Z,80.21
2018-10-15T20:12:27.647Z,81.10
2018-10-15T20:14:56.603Z,81.35
2018-10-15T20:17:29.261Z,80.91
2018-10-15T20:19:59.023Z,81.49
2018-10-15T20:22:28.831Z,82.04
2018-10-15T20:24:58.409Z,80.87
2018-10-15T20:27:28.334Z,81.64
2018-10-15T20:30:01.819Z,82.49
2018-10-15T20:32:32.616Z,81.40
2018-10-15T20:35:00.790Z,80.99
2018-10-15T20:37:28.851Z,80.66
2018-10-15T20:39:56.949Z,80.76
2018-10-15T20:42:25.089Z,81.88
2018-10-15T20:44:53.174Z,81.74
2018-10-15T20:47:21.354Z,83.38
2018-10-15T20:49:50.404Z,83.47
2018-10-15T20:52:18.551Z,83.87
2018-10-15T20:54:46.643Z,84.58
2018-10-15T20:57:14.787Z,86.04
2018-10-15T20:59:42.867Z,86.84
2018-10-15T21:02:10.951Z,87.03
2018-10-15T21:04:39.089Z,85.76
2018-10-15T21:07:07.228Z,85.93
2018-10-15T21:09:35.340Z,85.57
2018-10-15T21:12:04.068Z,85.06
2018-10-15T21:14:32.144Z,84.63
2018-10-15T21:17:00.237Z,84.36
2018-10-15T21:19:28.324Z,83.92
2018-10-15T21:21:56.413Z,83.11
2018-10-15T21:24:24.492Z,82.43
2018-10-15T21:26:52.571Z,82.54
2018-10-15T21:29:20.657Z,82.38
2018-10-15T21:31:48.759Z,84.72
2018-10-15T21:34:16.892Z,84.61
2018-10-15T21:36:44.984Z,85.18
2018-10-15T21:39:13.095Z,85.39
2018-10-15T21:41:42.396Z,85.83
2018-10-15T21:44:10.753Z,85.55
2018-10-15T21:46:42.674Z,86.10
2018-10-15T21:49:11.648Z,85.87
2018-10-15T21:51:42.797Z,86.56
2018-10-15T21:54:20.838Z,87.04
2018-10-15T21:56:51.774Z,85.71
2018-10-15T21:59:21.294Z,84.24
2018-10-15T22:01:50.143Z,84.92
2018-10-15T22:04:20.326Z,85.52
2018-10-15T22:06:50.006Z,85.36
2018-10-15T22:09:18.642Z,85.89
2018-10-15T22:11:48.522Z,86.99
2018-10-15T22:14:17.595Z,87.08
2018-10-15T22:16:48.998Z,87.39
2018-10-15T22:19:18.606Z,87.47
2018-10-15T22:21:47.629Z,86.65
2018-10-15T22:24:16.001Z,85.66
2018-10-15T22:26:46.176Z,87.50
2018-10-15T22:29:16.200Z,88.15
2018-10-15T22:31:44.362Z,88.18
2018-10-15T22:34:12.443Z,89.04
2018-10-15T22:36:40.521Z,89.12
2018-10-15T22:39:11.954Z,88.85
2018-10-15T22:41:40.444Z,88.04
2018-10-15T22:44:08.801Z,87.33
2018-10-15T22:46:37.556Z,88.43
2018-10-15T22:49:05.764Z,87.95
2018-10-15T22:51:33.838Z,88.17
2018-10-15T22:54:01.932Z,87.69
2018-10-15T22:56:30.033Z,88.77
2018-10-15T22:58:58.160Z,87.46
2018-10-15T23:01:26.287Z,88.47
2018-10-15T23:03:54.369Z,88.89
2018-10-15T23:06:22.563Z,89.84
2018-10-15T23:08:50.680Z,89.81
2018-10-15T23:11:18.757Z,90.92
2018-10-15T23:13:46.843Z,89.53
2018-10-15T23:16:14.981Z,89.99
2018-10-15T23:18:43.121Z,88.88
2018-10-15T23:21:11.147Z,89.17
2018-10-15T23:23:39.229Z,89.74
2018-10-15T23:26:07.298Z,90.25
2018-10-15T23:28:35.378Z,90.73
2018-10-15T23:31:08.930Z,91.40
2018-10-15T23:33:37.015Z,92.26
2018-10-15T23:36:05.276Z,91.38
2018-10-15T23:38:33.352Z,90.27
2018-10-15T23:41:01.515Z,90.21
2018-10-15T23:43:29.744Z,91.22
2018-10-15T23:45:57.959Z,90.66
2018-10-15T23:48:26.071Z,90.31
2018-10-15T23:50:54.152Z,90.19
2018-10-15T23:53:22.228Z,90.85
2018-10-15T23:55:50.320Z,90.76
2018-10-15T23:58:18.399Z,90.92
